Bookmark and Share
Track history (hours):
 

Jessica S. Settoon

More information available from US FCC via Universal Licensing System and Coast Guard Vessel Documentation Center.

Last reported at 2014-Apr-22 19:30 UTC. Time now 2014-Apr-23 09:47 UTC.
Position N 29°43' W 091°33'.

Length 17 m; draft 3 m.

Type: Tug. MMSI: 367312940.

NotesDate/timePositionNaut miles runAvg speedWind from/ knotsBaromVisibWave heightAir tempDewpointWater temp
2014-Apr-22 19:30N 29°43' W 091°33'8 8.4
2014-Apr-22 18:32N 29°39' W 091°24'8 7.7
2014-Apr-22 17:33N 29°39' W 091°16'6 6.0
2014-Apr-22 16:33N 29°41' W 091°09'6 5.5
2014-Apr-22 15:33N 29°38' W 091°04'6 1.5
2014-Apr-22 11:14N 29°38' W 090°57'2 0.1
2014-Apr-20 22:05N 29°36' W 090°58'5 6.9
2014-Apr-20 21:25N 29°37' W 091°03'5 6.3
2014-Apr-20 20:33N 29°40' W 091°08'5 4.9
2014-Apr-20 19:33N 29°40' W 091°14'12 0.5
2014-Apr-19 20:25N 29°41' W 091°28'6 6.8
2014-Apr-19 19:31N 29°39' W 091°22'7 6.9
2014-Apr-19 18:34N 29°40' W 091°14'6 6.1
2014-Apr-19 17:34N 29°45' W 091°11'8 0.8
2014-Apr-19 07:21N 29°53' W 091°13'5 5.3
2014-Apr-19 06:25N 29°48' W 091°10'5 5.6
2014-Apr-19 05:33N 29°44' W 091°11'4 4.1
2014-Apr-19 04:33N 29°40' W 091°14'5 5.2
2014-Apr-19 03:33N 29°38' W 091°19'15 1.5
2014-Apr-18 17:17N 29°45' W 091°35'6 7.5
2014-Apr-18 16:33N 29°42' W 091°30'7 7.3
2014-Apr-18 15:33N 29°39' W 091°23'7 7.2
2014-Apr-18 14:33N 29°40' W 091°14'4 4.4
2014-Apr-18 13:33N 29°41' W 091°10'4 4.4
2014-Apr-18 12:33N 29°38' W 091°06'4 4.2
2014-Apr-18 11:30N 29°37' W 091°01'4 1.0
2014-Apr-18 07:10N 29°38' W 090°56'0 0.1
2014-Apr-18 05:04N 29°37' W 090°56'2 3.2
2014-Apr-18 04:30N 29°37' W 090°58'  
2014-Apr-13 05:28N 29°34' W 090°56'6 6.6
2014-Apr-13 04:33N 29°37' W 091°01'2 0.8
2014-Apr-13 01:32N 29°40' W 091°01'1 1.0
2014-Apr-13 00:26N 29°40' W 091°00'0 0.3
2014-Apr-12 23:29N 29°41' W 091°00'  

Dump ship's entire track history

sailing weather and tide predictions

Jessica S. Settoon — WDD9545 — position and weather